Time;durP1;ratioP1;P1;durP2;ratioP2;P2;SDS_P1;SDS_P2;PMS_P1;PMS_P2;Temp;Humidity;BMP_temperature;BMP_pressure;BME280_temperature;BME280_humidity;BME280_pressure;Samples;Min_cycle;Max_cycle;Signal;HPM_P1;HPM_P2
2023/01/25 00:00:17;;;;;;;17.43;12.23;;;;;;;;;;5016231;28;20301;-54
2023/01/25 00:02:44;;;;;;;17.37;12.17;;;;;;;;;;5019390;28;20713;-53
2023/01/25 00:05:10;;;;;;;17.13;11.10;;;;;;;;;;5022627;28;20267;-55
2023/01/25 00:07:36;;;;;;;15.13;10.80;;;;;;;;;;5026723;28;20247;-52
2023/01/25 00:10:04;;;;;;;19.00;12.17;;;;;;;;;;5023545;28;20331;-53
2023/01/25 00:12:31;;;;;;;17.27;11.73;;;;;;;;;;5027129;28;20319;-53
2023/01/25 00:14:57;;;;;;;16.80;11.80;;;;;;;;;;5023863;28;20224;-53
2023/01/25 00:17:23;;;;;;;16.50;12.17;;;;;;;;;;5024023;28;20237;-52
2023/01/25 00:19:50;;;;;;;15.23;12.00;;;;;;;;;;5026820;28;20246;-55
2023/01/25 00:22:16;;;;;;;14.67;11.07;;;;;;;;;;5020183;28;20235;-55
2023/01/25 00:24:43;;;;;;;15.90;11.03;;;;;;;;;;5023137;28;20234;-52
2023/01/25 00:27:10;;;;;;;13.67;11.13;;;;;;;;;;5023403;28;20260;-53
2023/01/25 00:29:37;;;;;;;13.60;11.03;;;;;;;;;;5023317;28;20231;-54
2023/01/25 00:32:09;;;;;;;16.10;12.07;;;;;;;;;;5032700;28;20370;-55
2023/01/25 00:34:42;;;;;;;16.17;11.67;;;;;;;;;;5021143;28;20302;-55
2023/01/25 00:37:28;;;;;;;18.93;12.17;;;;;;;;;;5019737;28;20235;-52
2023/01/25 00:39:54;;;;;;;14.13;11.63;;;;;;;;;;5015878;28;20240;-58
2023/01/25 00:42:22;;;;;;;19.73;11.90;;;;;;;;;;5022830;28;20239;-56
2023/01/25 00:44:48;;;;;;;14.13;11.33;;;;;;;;;;5020389;28;20249;-60
2023/01/25 00:47:15;;;;;;;13.97;11.30;;;;;;;;;;5015804;28;20240;-52
2023/01/25 00:49:42;;;;;;;19.23;12.47;;;;;;;;;;5014981;28;20238;-54
2023/01/25 00:52:09;;;;;;;18.73;12.97;;;;;;;;;;5016310;28;20580;-54
2023/01/25 00:54:35;;;;;;;14.40;11.73;;;;;;;;;;5018778;28;20263;-52
2023/01/25 00:57:02;;;;;;;16.87;11.40;;;;;;;;;;5014486;28;20262;-54
2023/01/25 00:59:30;;;;;;;15.70;11.17;;;;;;;;;;5019195;28;20238;-54
2023/01/25 01:01:56;;;;;;;17.20;11.73;;;;;;;;;;5009788;28;20800;-52
2023/01/25 01:04:24;;;;;;;18.77;11.00;;;;;;;;;;5016601;28;20254;-53
2023/01/25 01:06:51;;;;;;;17.03;11.77;;;;;;;;;;5023296;28;20242;-52
2023/01/25 01:09:18;;;;;;;18.17;12.50;;;;;;;;;;5018915;28;20241;-53
2023/01/25 01:11:44;;;;;;;20.03;11.47;;;;;;;;;;5017750;28;20236;-53
2023/01/25 01:14:11;;;;;;;16.33;11.20;;;;;;;;;;5019101;28;20243;-51
2023/01/25 01:16:38;;;;;;;15.90;11.60;;;;;;;;;;5016855;28;20238;-53
2023/01/25 01:19:05;;;;;;;15.07;12.03;;;;;;;;;;5018104;28;20248;-52
2023/01/25 01:21:31;;;;;;;17.47;12.43;;;;;;;;;;4998519;28;20236;-53
2023/01/25 01:23:57;;;;;;;14.63;11.47;;;;;;;;;;4999302;28;20252;-52
2023/01/25 01:26:24;;;;;;;13.73;10.83;;;;;;;;;;5004424;28;20688;-53
2023/01/25 01:28:50;;;;;;;17.23;12.50;;;;;;;;;;4999152;28;20255;-52
2023/01/25 01:31:18;;;;;;;16.50;12.30;;;;;;;;;;5016869;28;20301;-52
2023/01/25 01:33:48;;;;;;;19.73;12.90;;;;;;;;;;5020289;28;20785;-54
2023/01/25 01:36:15;;;;;;;15.37;11.73;;;;;;;;;;5016263;28;20291;-54
2023/01/25 01:38:41;;;;;;;16.00;11.17;;;;;;;;;;5013733;28;20252;-54
2023/01/25 01:41:09;;;;;;;15.30;11.30;;;;;;;;;;5013020;28;20238;-53
2023/01/25 01:43:35;;;;;;;18.50;12.30;;;;;;;;;;5021205;28;20719;-53
2023/01/25 01:46:02;;;;;;;15.30;11.67;;;;;;;;;;5022808;28;20263;-53
2023/01/25 01:48:32;;;;;;;22.87;13.50;;;;;;;;;;5021553;28;20323;-53
2023/01/25 01:51:01;;;;;;;16.67;10.47;;;;;;;;;;5016418;28;20227;-53
2023/01/25 01:53:29;;;;;;;19.17;11.93;;;;;;;;;;4995285;28;20261;-52
2023/01/25 01:55:58;;;;;;;14.90;10.83;;;;;;;;;;5012819;28;20306;-52
2023/01/25 01:58:25;;;;;;;14.33;11.17;;;;;;;;;;5018038;28;20246;-54
2023/01/25 02:00:52;;;;;;;15.77;11.23;;;;;;;;;;5022306;28;20715;-52
2023/01/25 02:03:19;;;;;;;15.40;12.20;;;;;;;;;;5011950;28;20242;-53
2023/01/25 02:05:49;;;;;;;20.47;12.77;;;;;;;;;;5022178;28;20260;-52
2023/01/25 02:08:18;;;;;;;14.07;10.70;;;;;;;;;;5021102;28;20245;-52
2023/01/25 02:10:45;;;;;;;16.07;11.20;;;;;;;;;;5026505;28;20240;-53
2023/01/25 02:13:12;;;;;;;14.87;9.80;;;;;;;;;;5021078;28;20942;-53
2023/01/25 02:15:41;;;;;;;15.20;10.57;;;;;;;;;;5026942;28;20319;-52
2023/01/25 02:18:08;;;;;;;18.83;12.43;;;;;;;;;;5034790;28;20236;-52
2023/01/25 02:20:36;;;;;;;18.37;12.07;;;;;;;;;;5034922;28;20291;-52
2023/01/25 02:23:05;;;;;;;16.83;11.70;;;;;;;;;;5020568;28;20240;-54
2023/01/25 02:25:33;;;;;;;16.03;11.23;;;;;;;;;;5024007;28;20236;-53
2023/01/25 02:28:02;;;;;;;19.07;11.70;;;;;;;;;;5030396;28;20251;-53
2023/01/25 02:30:29;;;;;;;16.47;10.87;;;;;;;;;;5026228;28;20294;-54
2023/01/25 02:32:55;;;;;;;14.67;11.03;;;;;;;;;;5017432;28;20239;-53
2023/01/25 02:35:23;;;;;;;16.00;10.87;;;;;;;;;;5025002;28;20227;-52
2023/01/25 02:37:50;;;;;;;15.77;11.47;;;;;;;;;;5023576;28;20338;-53
2023/01/25 02:40:17;;;;;;;16.47;12.13;;;;;;;;;;5023329;28;20302;-55
2023/01/25 02:42:45;;;;;;;13.43;9.83;;;;;;;;;;5021157;28;20248;-52
2023/01/25 02:45:14;;;;;;;18.07;12.73;;;;;;;;;;5032595;28;20301;-53
2023/01/25 02:47:40;;;;;;;15.00;11.93;;;;;;;;;;5023316;28;20232;-53
2023/01/25 02:50:08;;;;;;;18.43;12.90;;;;;;;;;;5033925;28;20626;-54
2023/01/25 02:52:34;;;;;;;18.83;11.87;;;;;;;;;;5033761;28;20321;-53
2023/01/25 02:55:01;;;;;;;15.40;11.50;;;;;;;;;;5014906;28;20232;-53
2023/01/25 02:57:27;;;;;;;20.23;12.50;;;;;;;;;;5023030;28;20714;-53
2023/01/25 02:59:55;;;;;;;19.43;11.93;;;;;;;;;;5016348;28;20668;-53
2023/01/25 03:02:21;;;;;;;15.33;10.83;;;;;;;;;;5019167;28;20245;-54
2023/01/25 03:04:48;;;;;;;16.43;12.43;;;;;;;;;;5017933;28;20326;-53
2023/01/25 03:07:14;;;;;;;18.57;11.73;;;;;;;;;;5018144;28;20247;-52
2023/01/25 03:09:41;;;;;;;16.97;13.13;;;;;;;;;;5026850;28;20227;-53
2023/01/25 03:12:08;;;;;;;19.07;12.03;;;;;;;;;;5012679;28;20236;-54
2023/01/25 03:14:34;;;;;;;18.03;11.60;;;;;;;;;;5027005;28;20352;-53
2023/01/25 03:17:02;;;;;;;14.77;10.70;;;;;;;;;;5029039;28;20243;-52
2023/01/25 03:19:28;;;;;;;16.73;12.23;;;;;;;;;;5025476;28;20267;-52
2023/01/25 03:21:55;;;;;;;16.03;11.03;;;;;;;;;;5025107;28;20906;-52
2023/01/25 03:24:21;;;;;;;15.37;11.30;;;;;;;;;;5027166;28;20295;-53
2023/01/25 03:29:32;;;;;;;18.03;13.17;;;;;;;;;;5017353;28;20234;-53
2023/01/25 03:31:58;;;;;;;17.70;12.63;;;;;;;;;;5022797;28;20617;-52
2023/01/25 03:34:26;;;;;;;16.30;11.97;;;;;;;;;;5023031;28;20618;-53
2023/01/25 03:36:53;;;;;;;16.10;11.93;;;;;;;;;;5014884;28;20243;-53
2023/01/25 03:39:19;;;;;;;17.40;11.70;;;;;;;;;;5010436;28;20293;-53
2023/01/25 03:41:46;;;;;;;14.93;12.23;;;;;;;;;;5015228;28;20293;-53
2023/01/25 03:44:12;;;;;;;14.47;11.40;;;;;;;;;;5023843;28;20348;-54
2023/01/25 03:46:39;;;;;;;14.93;11.27;;;;;;;;;;5016381;28;20259;-53
2023/01/25 03:49:09;;;;;;;14.63;11.27;;;;;;;;;;5010795;28;20774;-53
2023/01/25 03:51:37;;;;;;;17.03;12.27;;;;;;;;;;5022368;28;20232;-52
2023/01/25 03:54:04;;;;;;;17.47;12.07;;;;;;;;;;5023428;28;20270;-52
2023/01/25 03:56:30;;;;;;;20.53;12.13;;;;;;;;;;5021777;28;20235;-52
2023/01/25 03:58:57;;;;;;;18.00;12.67;;;;;;;;;;5023653;28;20673;-53
2023/01/25 04:01:23;;;;;;;17.83;13.20;;;;;;;;;;5031805;28;20236;-53
2023/01/25 04:03:49;;;;;;;16.27;12.17;;;;;;;;;;5020392;28;20602;-52
2023/01/25 04:06:16;;;;;;;18.77;11.70;;;;;;;;;;5023176;28;20241;-53
2023/01/25 04:08:44;;;;;;;19.57;12.97;;;;;;;;;;5012620;28;20259;-58
2023/01/25 04:11:10;;;;;;;16.63;12.67;;;;;;;;;;5022585;28;20302;-52
2023/01/25 04:13:37;;;;;;;19.30;12.83;;;;;;;;;;5032784;28;20235;-52
2023/01/25 04:16:04;;;;;;;16.90;12.70;;;;;;;;;;5015759;28;20320;-52
2023/01/25 04:18:31;;;;;;;20.67;12.40;;;;;;;;;;5027679;28;20246;-53
2023/01/25 04:20:58;;;;;;;18.30;12.97;;;;;;;;;;5025102;28;20271;-52
2023/01/25 04:23:24;;;;;;;18.27;13.37;;;;;;;;;;5020984;28;20322;-52
2023/01/25 04:25:56;;;;;;;18.80;12.37;;;;;;;;;;5018790;28;20791;-53
2023/01/25 04:28:23;;;;;;;19.57;12.37;;;;;;;;;;5013452;28;20286;-51
2023/01/25 04:30:49;;;;;;;16.10;12.17;;;;;;;;;;5015276;28;20282;-53
2023/01/25 04:33:16;;;;;;;16.93;13.50;;;;;;;;;;5004329;28;20310;-53
2023/01/25 04:35:43;;;;;;;17.13;12.63;;;;;;;;;;4994482;28;20252;-53
2023/01/25 04:38:10;;;;;;;16.57;12.67;;;;;;;;;;4999056;28;21035;-51
2023/01/25 04:40:36;;;;;;;17.90;13.27;;;;;;;;;;5017104;28;20741;-52
2023/01/25 04:43:05;;;;;;;25.00;14.10;;;;;;;;;;5005675;28;20318;-52
2023/01/25 04:45:32;;;;;;;16.43;12.23;;;;;;;;;;5014708;28;20858;-52
2023/01/25 04:47:59;;;;;;;18.57;12.40;;;;;;;;;;5012445;28;20231;-52
2023/01/25 04:50:26;;;;;;;16.53;12.20;;;;;;;;;;5018274;28;20819;-52
2023/01/25 04:52:53;;;;;;;22.37;13.90;;;;;;;;;;5020209;28;20236;-53
2023/01/25 04:55:19;;;;;;;17.97;12.77;;;;;;;;;;5015795;28;20238;-52
2023/01/25 04:57:48;;;;;;;19.43;12.77;;;;;;;;;;5027108;28;20285;-53
2023/01/25 05:00:17;;;;;;;17.30;12.60;;;;;;;;;;5019993;28;23083;-52
2023/01/25 05:02:43;;;;;;;16.73;14.03;;;;;;;;;;5020326;28;20636;-53
2023/01/25 05:05:10;;;;;;;16.03;11.07;;;;;;;;;;5015556;28;20243;-53
2023/01/25 05:07:37;;;;;;;16.07;11.67;;;;;;;;;;5017947;28;20247;-59
2023/01/25 05:10:04;;;;;;;14.30;10.70;;;;;;;;;;5032913;28;20286;-54
2023/01/25 05:12:30;;;;;;;16.50;11.33;;;;;;;;;;5030707;28;20240;-53
2023/01/25 05:14:56;;;;;;;15.83;11.97;;;;;;;;;;5032563;28;20259;-54
2023/01/25 05:17:24;;;;;;;14.97;11.50;;;;;;;;;;5032502;28;20323;-55
2023/01/25 05:19:51;;;;;;;18.27;12.67;;;;;;;;;;5035358;28;20238;-52
2023/01/25 05:22:19;;;;;;;12.80;9.47;;;;;;;;;;5023387;28;20241;-52
2023/01/25 05:24:46;;;;;;;11.23;8.80;;;;;;;;;;5011484;28;20244;-52
2023/01/25 05:27:12;;;;;;;14.63;10.07;;;;;;;;;;5021489;28;20235;-52
2023/01/25 05:29:39;;;;;;;12.87;9.87;;;;;;;;;;5020434;28;20322;-53
2023/01/25 05:32:07;;;;;;;13.67;8.67;;;;;;;;;;5019605;28;20304;-53
2023/01/25 05:34:37;;;;;;;11.90;9.30;;;;;;;;;;5021112;28;20293;-53
2023/01/25 05:37:04;;;;;;;16.93;9.83;;;;;;;;;;5014804;28;20236;-52
2023/01/25 05:39:31;;;;;;;16.43;9.33;;;;;;;;;;5018180;28;20242;-53
2023/01/25 05:41:57;;;;;;;12.77;9.20;;;;;;;;;;5024948;28;20243;-54
2023/01/25 05:44:24;;;;;;;13.63;9.40;;;;;;;;;;5019447;28;20242;-52
2023/01/25 05:46:50;;;;;;;11.00;9.33;;;;;;;;;;5022098;28;20231;-52
2023/01/25 05:49:17;;;;;;;11.23;8.63;;;;;;;;;;5022948;28;20232;-53
2023/01/25 05:51:45;;;;;;;12.07;7.73;;;;;;;;;;5027238;28;20222;-52
2023/01/25 05:54:12;;;;;;;10.80;8.60;;;;;;;;;;5023093;28;20297;-52
2023/01/25 05:56:39;;;;;;;12.17;9.10;;;;;;;;;;5023684;28;20234;-52
2023/01/25 05:59:10;;;;;;;13.33;10.33;;;;;;;;;;5026460;28;20324;-54
2023/01/25 06:01:36;;;;;;;14.27;8.93;;;;;;;;;;5028289;28;20334;-53
2023/01/25 06:04:03;;;;;;;11.30;8.97;;;;;;;;;;5029620;28;20318;-53
2023/01/25 06:06:30;;;;;;;11.87;9.83;;;;;;;;;;5025836;28;20247;-53
2023/01/25 06:08:57;;;;;;;10.63;8.53;;;;;;;;;;5026828;28;20710;-53
2023/01/25 06:11:24;;;;;;;13.73;9.23;;;;;;;;;;5025104;28;20325;-53
2023/01/25 06:13:51;;;;;;;16.23;9.20;;;;;;;;;;5021747;28;20244;-53
2023/01/25 06:16:17;;;;;;;14.83;9.47;;;;;;;;;;5026214;28;20737;-53
2023/01/25 06:18:44;;;;;;;15.43;9.70;;;;;;;;;;5012269;28;20925;-55
2023/01/25 06:21:11;;;;;;;13.73;9.67;;;;;;;;;;5010025;28;20323;-53
2023/01/25 06:23:37;;;;;;;14.33;9.57;;;;;;;;;;5011455;28;20327;-54
2023/01/25 06:26:06;;;;;;;13.83;8.80;;;;;;;;;;5014724;28;20336;-53
2023/01/25 06:28:34;;;;;;;12.83;9.40;;;;;;;;;;5017086;28;20722;-53
2023/01/25 06:31:04;;;;;;;12.30;9.10;;;;;;;;;;5025402;28;20762;-53
2023/01/25 06:33:30;;;;;;;13.07;9.43;;;;;;;;;;5019252;28;20232;-52
2023/01/25 06:35:59;;;;;;;12.23;10.23;;;;;;;;;;5020342;28;20297;-54
2023/01/25 06:38:25;;;;;;;12.80;9.63;;;;;;;;;;5020926;28;20244;-52
2023/01/25 06:40:52;;;;;;;13.27;9.77;;;;;;;;;;5007154;28;20883;-52
2023/01/25 06:43:20;;;;;;;11.73;8.83;;;;;;;;;;5021320;28;20235;-53
2023/01/25 06:45:46;;;;;;;11.80;8.50;;;;;;;;;;5019247;28;20701;-53
2023/01/25 06:48:13;;;;;;;13.13;9.40;;;;;;;;;;5021350;28;20728;-52
2023/01/25 06:50:39;;;;;;;13.77;9.73;;;;;;;;;;5018396;28;20228;-53
2023/01/25 06:53:06;;;;;;;13.37;9.80;;;;;;;;;;5021561;28;20243;-52
2023/01/25 06:55:32;;;;;;;12.37;10.43;;;;;;;;;;5028573;28;20241;-53
2023/01/25 06:58:00;;;;;;;13.53;9.90;;;;;;;;;;5023913;28;20753;-53
2023/01/25 07:00:28;;;;;;;14.97;9.77;;;;;;;;;;5016549;28;20302;-52
2023/01/25 07:02:54;;;;;;;14.00;10.63;;;;;;;;;;5019242;28;20310;-53
2023/01/25 07:05:22;;;;;;;12.97;10.40;;;;;;;;;;5019738;28;20246;-54
2023/01/25 07:07:49;;;;;;;11.67;9.17;;;;;;;;;;5027464;28;20278;-53
2023/01/25 07:10:15;;;;;;;13.20;10.20;;;;;;;;;;5020533;28;20248;-54
2023/01/25 07:12:42;;;;;;;12.83;9.27;;;;;;;;;;5017446;28;20701;-53
2023/01/25 07:15:09;;;;;;;13.47;9.60;;;;;;;;;;5015600;28;20245;-53
2023/01/25 07:17:36;;;;;;;12.83;9.80;;;;;;;;;;5010082;28;20612;-53
2023/01/25 07:20:03;;;;;;;14.63;10.67;;;;;;;;;;5010076;28;21144;-52
2023/01/25 07:22:29;;;;;;;11.40;9.97;;;;;;;;;;5011763;28;20229;-52
2023/01/25 07:24:57;;;;;;;15.47;9.70;;;;;;;;;;5008421;28;20247;-52
2023/01/25 07:27:24;;;;;;;12.30;9.93;;;;;;;;;;5015716;28;20231;-56
2023/01/25 07:29:51;;;;;;;18.07;11.47;;;;;;;;;;5011254;28;20323;-54
2023/01/25 07:32:17;;;;;;;14.00;10.37;;;;;;;;;;5022958;28;20274;-52
2023/01/25 07:34:45;;;;;;;13.57;11.20;;;;;;;;;;5020930;28;20826;-54
2023/01/25 07:37:11;;;;;;;15.13;10.63;;;;;;;;;;5019367;28;20252;-52
2023/01/25 07:39:46;;;;;;;17.47;9.70;;;;;;;;;;5041465;28;20269;-53
2023/01/25 07:42:12;;;;;;;16.97;10.73;;;;;;;;;;5039543;28;20246;-52
2023/01/25 07:44:39;;;;;;;13.87;10.17;;;;;;;;;;5036085;28;20231;-53
2023/01/25 07:47:05;;;;;;;10.37;8.90;;;;;;;;;;5035054;28;20250;-52
2023/01/25 07:49:32;;;;;;;12.70;9.80;;;;;;;;;;5043156;28;20239;-53
2023/01/25 07:52:00;;;;;;;12.17;9.30;;;;;;;;;;5029169;28;20286;-53
2023/01/25 07:54:26;;;;;;;12.10;9.07;;;;;;;;;;5030682;28;20266;-53
2023/01/25 07:56:53;;;;;;;12.80;9.50;;;;;;;;;;5025684;28;20259;-52
2023/01/25 07:59:19;;;;;;;13.70;9.83;;;;;;;;;;5030614;28;20252;-52
2023/01/25 08:01:46;;;;;;;13.27;9.33;;;;;;;;;;5022705;28;20239;-53
2023/01/25 08:04:12;;;;;;;13.50;9.57;;;;;;;;;;5020945;28;20425;-53
2023/01/25 08:06:39;;;;;;;15.17;11.53;;;;;;;;;;5028149;28;20236;-51
2023/01/25 08:09:07;;;;;;;18.60;12.07;;;;;;;;;;5028341;28;20239;-54
2023/01/25 08:11:34;;;;;;;14.83;10.27;;;;;;;;;;5026195;28;20244;-52
2023/01/25 08:14:02;;;;;;;15.53;9.87;;;;;;;;;;5013027;28;20240;-51
2023/01/25 08:16:29;;;;;;;18.20;10.33;;;;;;;;;;5010475;28;20258;-54
2023/01/25 08:18:56;;;;;;;14.33;10.80;;;;;;;;;;5026752;28;20871;-54
2023/01/25 08:21:24;;;;;;;15.97;10.97;;;;;;;;;;5026456;28;20235;-53
2023/01/25 08:23:51;;;;;;;16.83;11.23;;;;;;;;;;5020783;28;20318;-51
2023/01/25 08:26:19;;;;;;;17.70;12.17;;;;;;;;;;5011238;28;20244;-52
2023/01/25 08:28:46;;;;;;;14.13;10.50;;;;;;;;;;5004627;28;20244;-53
2023/01/25 08:31:13;;;;;;;15.23;10.57;;;;;;;;;;5018861;28;20274;-52
2023/01/25 08:33:43;;;;;;;14.97;10.63;;;;;;;;;;5009251;28;20221;-52
2023/01/25 08:36:10;;;;;;;16.20;11.33;;;;;;;;;;5003186;28;20239;-53
2023/01/25 08:38:36;;;;;;;13.20;10.03;;;;;;;;;;5013233;28;20248;-53
2023/01/25 08:41:06;;;;;;;14.77;10.33;;;;;;;;;;5015470;28;20235;-52
2023/01/25 08:43:34;;;;;;;15.70;10.83;;;;;;;;;;5021103;28;20321;-53
2023/01/25 08:46:01;;;;;;;18.23;11.47;;;;;;;;;;5014402;28;20400;-54
2023/01/25 08:48:27;;;;;;;14.87;10.97;;;;;;;;;;5005341;28;20367;-54
2023/01/25 08:50:53;;;;;;;17.80;10.43;;;;;;;;;;4998878;28;20321;-53
2023/01/25 08:53:20;;;;;;;17.03;11.80;;;;;;;;;;5014902;28;20254;-52
2023/01/25 08:55:47;;;;;;;18.10;12.33;;;;;;;;;;5020237;28;20235;-52
2023/01/25 08:58:15;;;;;;;15.40;11.10;;;;;;;;;;5021163;28;20307;-53
2023/01/25 09:00:43;;;;;;;18.33;11.10;;;;;;;;;;5021805;28;20234;-53
2023/01/25 09:03:10;;;;;;;14.40;10.23;;;;;;;;;;5025606;28;20246;-52
2023/01/25 09:05:37;;;;;;;19.50;12.93;;;;;;;;;;5018596;28;20322;-52
2023/01/25 09:08:04;;;;;;;20.80;13.67;;;;;;;;;;5015322;28;20245;-52
2023/01/25 09:10:31;;;;;;;16.80;11.37;;;;;;;;;;5019330;28;20235;-52
2023/01/25 09:12:57;;;;;;;21.17;13.10;;;;;;;;;;5026871;28;20302;-52
2023/01/25 09:15:24;;;;;;;19.60;12.90;;;;;;;;;;5012881;28;20318;-52
2023/01/25 09:17:52;;;;;;;15.00;10.83;;;;;;;;;;5020920;28;20244;-53
2023/01/25 09:20:18;;;;;;;26.43;12.63;;;;;;;;;;5021854;28;20326;-55
2023/01/25 09:22:45;;;;;;;15.37;11.20;;;;;;;;;;5025062;28;20318;-52
2023/01/25 09:25:12;;;;;;;22.50;13.27;;;;;;;;;;5024332;28;20293;-52
2023/01/25 09:27:38;;;;;;;16.20;11.50;;;;;;;;;;5021087;28;20238;-53
2023/01/25 09:30:05;;;;;;;15.33;11.03;;;;;;;;;;5017606;28;20334;-52
2023/01/25 09:32:31;;;;;;;18.37;11.70;;;;;;;;;;5023345;28;20240;-55
2023/01/25 09:34:59;;;;;;;19.83;12.63;;;;;;;;;;5024336;28;20285;-54
2023/01/25 09:37:26;;;;;;;18.57;12.50;;;;;;;;;;5024317;28;20237;-55
2023/01/25 09:39:52;;;;;;;18.23;12.90;;;;;;;;;;5026376;28;20263;-52
2023/01/25 09:42:37;;;;;;;17.50;13.07;;;;;;;;;;5019054;28;20244;-53
2023/01/25 09:45:17;;;;;;;16.20;9.63;;;;;;;;;;5026051;28;20316;-52
2023/01/25 09:47:45;;;;;;;16.77;11.43;;;;;;;;;;5018535;28;20240;-52
2023/01/25 09:50:30;;;;;;;19.43;12.27;;;;;;;;;;5019295;28;20236;-52
2023/01/25 09:53:09;;;;;;;16.87;11.87;;;;;;;;;;5019972;28;20251;-52
2023/01/25 09:55:36;;;;;;;18.27;12.40;;;;;;;;;;5019639;28;20233;-52
2023/01/25 09:58:03;;;;;;;17.73;12.43;;;;;;;;;;5009646;28;20720;-54
2023/01/25 10:00:31;;;;;;;18.27;13.30;;;;;;;;;;5019134;28;20320;-53
2023/01/25 10:03:02;;;;;;;18.33;11.83;;;;;;;;;;5023798;28;20265;-52
2023/01/25 10:05:30;;;;;;;16.00;11.57;;;;;;;;;;5023848;28;20706;-53
2023/01/25 10:08:00;;;;;;;19.67;13.37;;;;;;;;;;5025204;28;20328;-52
2023/01/25 10:10:30;;;;;;;18.60;12.97;;;;;;;;;;5019125;28;20240;-53
2023/01/25 10:12:56;;;;;;;17.80;12.27;;;;;;;;;;5016687;28;20234;-52
2023/01/25 10:15:28;;;;;;;20.77;14.83;;;;;;;;;;5016699;28;20293;-52
2023/01/25 10:17:58;;;;;;;25.60;16.90;;;;;;;;;;5018924;28;20243;-53
2023/01/25 10:20:27;;;;;;;18.30;12.97;;;;;;;;;;5019260;28;20241;-52
2023/01/25 10:23:00;;;;;;;15.67;12.90;;;;;;;;;;5026217;28;20314;-53
2023/01/25 10:25:38;;;;;;;20.97;12.77;;;;;;;;;;5002378;28;20870;-53
2023/01/25 10:28:09;;;;;;;20.57;12.57;;;;;;;;;;4998740;28;20275;-52
2023/01/25 10:30:39;;;;;;;22.37;12.97;;;;;;;;;;4997660;28;20613;-52
2023/01/25 10:33:10;;;;;;;20.27;13.97;;;;;;;;;;4990980;28;20674;-53
2023/01/25 10:35:38;;;;;;;17.57;12.20;;;;;;;;;;5001871;28;20247;-52
2023/01/25 10:38:06;;;;;;;19.70;12.83;;;;;;;;;;4987483;28;20243;-53
2023/01/25 10:40:39;;;;;;;22.83;12.47;;;;;;;;;;4995670;28;20241;-54
2023/01/25 10:43:09;;;;;;;17.23;12.30;;;;;;;;;;4999678;28;20327;-53
2023/01/25 10:45:37;;;;;;;19.93;13.77;;;;;;;;;;5003240;28;20230;-53
2023/01/25 10:48:06;;;;;;;19.13;13.17;;;;;;;;;;4991983;28;20272;-52
2023/01/25 10:50:46;;;;;;;20.47;14.17;;;;;;;;;;4990572;28;20240;-52
2023/01/25 10:53:33;;;;;;;20.23;13.23;;;;;;;;;;4994825;28;20615;-54
2023/01/25 10:56:15;;;;;;;19.70;12.27;;;;;;;;;;5013309;28;20235;-52
2023/01/25 10:58:44;;;;;;;17.53;12.30;;;;;;;;;;5020368;28;20231;-52
2023/01/25 11:01:13;;;;;;;17.50;12.13;;;;;;;;;;5014279;28;20238;-53
2023/01/25 11:03:40;;;;;;;17.40;12.07;;;;;;;;;;5023455;28;20236;-54
2023/01/25 11:06:07;;;;;;;19.27;12.73;;;;;;;;;;5018714;28;20241;-54
2023/01/25 11:08:34;;;;;;;17.60;12.90;;;;;;;;;;5025659;28;20263;-53
2023/01/25 11:11:13;;;;;;;20.17;12.80;;;;;;;;;;5029759;28;20236;-53
2023/01/25 11:13:41;;;;;;;20.53;12.57;;;;;;;;;;5023119;28;20877;-52
2023/01/25 11:16:16;;;;;;;17.23;13.03;;;;;;;;;;5026882;28;20245;-53
2023/01/25 11:18:50;;;;;;;20.63;12.93;;;;;;;;;;5021876;28;20334;-55
2023/01/25 11:21:20;;;;;;;19.27;12.23;;;;;;;;;;5025682;28;20255;-52
2023/01/25 11:23:57;;;;;;;20.70;13.47;;;;;;;;;;5021630;28;20228;-54
2023/01/25 11:26:23;;;;;;;19.47;13.37;;;;;;;;;;5014405;28;20231;-52
2023/01/25 11:29:06;;;;;;;18.83;13.03;;;;;;;;;;5014883;28;20236;-53
2023/01/25 11:31:32;;;;;;;22.37;13.83;;;;;;;;;;5024598;28;20262;-52
2023/01/25 11:33:59;;;;;;;20.10;13.97;;;;;;;;;;5029270;28;20258;-54
2023/01/25 11:36:29;;;;;;;20.63;13.37;;;;;;;;;;5021930;28;20231;-54
2023/01/25 11:39:05;;;;;;;19.23;12.83;;;;;;;;;;5027353;28;20864;-52
2023/01/25 11:41:35;;;;;;;22.97;13.40;;;;;;;;;;5022082;28;20226;-54
2023/01/25 11:44:15;;;;;;;20.73;14.40;;;;;;;;;;5022330;28;20267;-53
2023/01/25 11:46:50;;;;;;;22.23;15.23;;;;;;;;;;5027516;28;20314;-56
2023/01/25 11:49:25;;;;;;;25.93;14.93;;;;;;;;;;5019296;28;20347;-53
2023/01/25 11:51:55;;;;;;;25.60;15.77;;;;;;;;;;5023914;28;20246;-53
2023/01/25 11:54:38;;;;;;;23.80;16.07;;;;;;;;;;5022431;28;20292;-53
2023/01/25 11:57:08;;;;;;;20.87;14.10;;;;;;;;;;5016098;28;20231;-53
2023/01/25 11:59:48;;;;;;;57.33;30.03;;;;;;;;;;5013303;28;20311;-52
2023/01/25 12:02:23;;;;;;;26.23;15.13;;;;;;;;;;5018919;28;20236;-52
2023/01/25 12:05:07;;;;;;;20.43;15.03;;;;;;;;;;5001756;28;20231;-55
2023/01/25 12:07:40;;;;;;;20.07;13.80;;;;;;;;;;4992120;28;20242;-53
2023/01/25 12:10:20;;;;;;;27.67;15.67;;;;;;;;;;5021892;28;20248;-51
2023/01/25 12:12:50;;;;;;;18.67;13.20;;;;;;;;;;5019124;28;20231;-51
2023/01/25 12:15:38;;;;;;;25.40;17.30;;;;;;;;;;5018302;28;20242;-54
2023/01/25 12:18:14;;;;;;;22.20;14.83;;;;;;;;;;5033694;28;20246;-52
2023/01/25 12:20:54;;;;;;;29.37;17.43;;;;;;;;;;5028513;28;20231;-53
2023/01/25 12:23:30;;;;;;;27.63;16.10;;;;;;;;;;5024389;28;20240;-54
2023/01/25 12:26:05;;;;;;;23.53;16.40;;;;;;;;;;5017992;28;20332;-53
2023/01/25 12:28:33;;;;;;;28.00;16.67;;;;;;;;;;5031090;28;20233;-54
2023/01/25 12:31:03;;;;;;;26.43;16.27;;;;;;;;;;5023888;28;20589;-53
2023/01/25 12:33:32;;;;;;;27.80;16.57;;;;;;;;;;5030646;28;20227;-54
2023/01/25 12:36:01;;;;;;;26.60;15.17;;;;;;;;;;5018522;28;20329;-51
2023/01/25 12:38:29;;;;;;;24.93;16.33;;;;;;;;;;5021146;28;20310;-53
2023/01/25 12:40:59;;;;;;;25.83;16.10;;;;;;;;;;5017247;28;20327;-52
2023/01/25 12:43:28;;;;;;;26.03;17.83;;;;;;;;;;5022710;28;20242;-53
2023/01/25 12:45:55;;;;;;;23.50;14.97;;;;;;;;;;5023590;28;20240;-52
2023/01/25 12:48:24;;;;;;;27.13;14.97;;;;;;;;;;5024045;28;21890;-54
2023/01/25 12:50:54;;;;;;;27.20;15.87;;;;;;;;;;5020043;28;20323;-53
2023/01/25 12:53:21;;;;;;;20.20;14.70;;;;;;;;;;5022091;28;20242;-52
2023/01/25 12:55:48;;;;;;;27.10;15.37;;;;;;;;;;5023604;28;20227;-52
2023/01/25 12:58:18;;;;;;;25.57;15.80;;;;;;;;;;5019596;28;20312;-52
2023/01/25 13:00:51;;;;;;;22.47;15.00;;;;;;;;;;5025899;28;20327;-53
2023/01/25 13:03:25;;;;;;;28.17;15.97;;;;;;;;;;5017921;28;20234;-54
2023/01/25 13:05:55;;;;;;;26.40;15.80;;;;;;;;;;5021096;28;20239;-52
2023/01/25 13:08:26;;;;;;;24.70;15.73;;;;;;;;;;5021599;28;20337;-53
2023/01/25 13:10:54;;;;;;;30.03;16.03;;;;;;;;;;5022239;28;20245;-52
2023/01/25 13:13:22;;;;;;;29.13;15.83;;;;;;;;;;5028706;28;20279;-52
2023/01/25 13:15:48;;;;;;;24.33;14.53;;;;;;;;;;5033049;28;20238;-52
2023/01/25 13:18:33;;;;;;;24.00;14.30;;;;;;;;;;5028312;28;20242;-52
2023/01/25 13:21:02;;;;;;;25.17;15.27;;;;;;;;;;5031988;28;20246;-53
2023/01/25 13:23:31;;;;;;;24.63;15.10;;;;;;;;;;5030552;28;20242;-52
2023/01/25 13:26:12;;;;;;;19.43;12.60;;;;;;;;;;5017436;28;20235;-55
2023/01/25 13:28:41;;;;;;;22.43;14.27;;;;;;;;;;5026076;28;20693;-52
2023/01/25 13:31:08;;;;;;;22.23;14.13;;;;;;;;;;5028367;28;20235;-54
2023/01/25 13:33:35;;;;;;;20.77;12.27;;;;;;;;;;5023876;28;20242;-53
2023/01/25 13:36:20;;;;;;;20.77;12.73;;;;;;;;;;5031514;28;20242;-52
2023/01/25 13:38:47;;;;;;;18.57;12.50;;;;;;;;;;5025401;28;20236;-52
2023/01/25 13:41:15;;;;;;;17.73;11.43;;;;;;;;;;5019725;28;20638;-52
2023/01/25 13:43:43;;;;;;;21.43;13.03;;;;;;;;;;5026697;28;20255;-53
2023/01/25 13:46:11;;;;;;;22.87;13.63;;;;;;;;;;5022951;28;20810;-54
2023/01/25 13:48:44;;;;;;;18.63;12.80;;;;;;;;;;5022705;28;20247;-52
2023/01/25 13:51:13;;;;;;;22.07;14.00;;;;;;;;;;5024747;28;20328;-54
2023/01/25 13:53:39;;;;;;;22.20;13.63;;;;;;;;;;5023749;28;20543;-53
2023/01/25 13:56:23;;;;;;;20.13;13.63;;;;;;;;;;5017674;28;20714;-51
2023/01/25 13:58:50;;;;;;;23.60;12.80;;;;;;;;;;5025592;28;20795;-54
2023/01/25 14:01:18;;;;;;;24.13;13.30;;;;;;;;;;5024306;28;20239;-53
2023/01/25 14:03:45;;;;;;;21.73;11.73;;;;;;;;;;5021292;28;20321;-52
2023/01/25 14:06:16;;;;;;;18.03;12.80;;;;;;;;;;5014110;28;20318;-52
2023/01/25 14:08:43;;;;;;;22.20;13.17;;;;;;;;;;5018454;28;20262;-52
2023/01/25 14:11:10;;;;;;;20.77;13.23;;;;;;;;;;5023762;28;20242;-54
2023/01/25 14:13:37;;;;;;;25.10;13.60;;;;;;;;;;5003321;28;20620;-54
2023/01/25 14:16:03;;;;;;;22.33;13.43;;;;;;;;;;5004039;28;20247;-51
2023/01/25 14:18:30;;;;;;;26.17;14.93;;;;;;;;;;5005698;28;20268;-53
2023/01/25 14:21:10;;;;;;;20.47;13.50;;;;;;;;;;4998968;28;20247;-51
2023/01/25 14:23:36;;;;;;;21.87;14.03;;;;;;;;;;5025748;28;20311;-52
2023/01/25 14:26:03;;;;;;;22.67;14.67;;;;;;;;;;5028080;28;20648;-54
2023/01/25 14:28:30;;;;;;;21.77;15.07;;;;;;;;;;5021423;28;20263;-53